sensor_id;sensor_type;location;lat;lon;timestamp;temperature;humidity
4602;DHT22;2313;48.552;9.370;2023-09-19T00:02:02;16.20;99.90
4602;DHT22;2313;48.552;9.370;2023-09-19T00:04:32;16.30;99.90
4602;DHT22;2313;48.552;9.370;2023-09-19T00:06:58;16.20;99.90
4602;DHT22;2313;48.552;9.370;2023-09-19T00:09:24;16.20;99.90
4602;DHT22;2313;48.552;9.370;2023-09-19T00:11:53;16.10;99.90
4602;DHT22;2313;48.552;9.370;2023-09-19T00:14:19;16.20;99.90
4602;DHT22;2313;48.552;9.370;2023-09-19T00:16:44;16.20;99.90
4602;DHT22;2313;48.552;9.370;2023-09-19T00:19:12;16.30;99.90
4602;DHT22;2313;48.552;9.370;2023-09-19T00:21:39;16.30;99.90
4602;DHT22;2313;48.552;9.370;2023-09-19T00:24:06;16.40;99.90
4602;DHT22;2313;48.552;9.370;2023-09-19T00:26:32;16.50;99.90
4602;DHT22;2313;48.552;9.370;2023-09-19T00:28:59;16.50;99.90
4602;DHT22;2313;48.552;9.370;2023-09-19T00:31:31;16.40;99.90
4602;DHT22;2313;48.552;9.370;2023-09-19T00:33:57;16.40;99.90
4602;DHT22;2313;48.552;9.370;2023-09-19T00:36:28;16.40;99.90
4602;DHT22;2313;48.552;9.370;2023-09-19T00:38:54;16.60;99.90
4602;DHT22;2313;48.552;9.370;2023-09-19T00:41:20;16.60;99.90
4602;DHT22;2313;48.552;9.370;2023-09-19T00:43:46;16.70;99.90
4602;DHT22;2313;48.552;9.370;2023-09-19T00:46:16;16.60;99.90
4602;DHT22;2313;48.552;9.370;2023-09-19T00:48:42;16.70;99.90
4602;DHT22;2313;48.552;9.370;2023-09-19T00:51:12;16.60;99.90
4602;DHT22;2313;48.552;9.370;2023-09-19T00:53:39;16.70;99.90
4602;DHT22;2313;48.552;9.370;2023-09-19T00:56:07;16.70;99.90
4602;DHT22;2313;48.552;9.370;2023-09-19T00:58:34;16.70;99.90
4602;DHT22;2313;48.552;9.370;2023-09-19T01:01:01;16.70;99.90
4602;DHT22;2313;48.552;9.370;2023-09-19T01:03:27;16.60;99.90
4602;DHT22;2313;48.552;9.370;2023-09-19T01:05:53;16.70;99.90
4602;DHT22;2313;48.552;9.370;2023-09-19T01:08:19;16.70;99.90
4602;DHT22;2313;48.552;9.370;2023-09-19T01:11:13;16.80;99.90
4602;DHT22;2313;48.552;9.370;2023-09-19T01:16:32;16.80;99.90
4602;DHT22;2313;48.552;9.370;2023-09-19T01:19:16;16.80;99.90
4602;DHT22;2313;48.552;9.370;2023-09-19T01:25:02;16.80;99.90
4602;DHT22;2313;48.552;9.370;2023-09-19T01:30:27;16.80;99.90
4602;DHT22;2313;48.552;9.370;2023-09-19T01:32:55;16.80;99.90
4602;DHT22;2313;48.552;9.370;2023-09-19T01:35:22;16.90;99.90
4602;DHT22;2313;48.552;9.370;2023-09-19T01:37:48;16.80;99.90
4602;DHT22;2313;48.552;9.370;2023-09-19T01:40:16;16.90;99.90
4602;DHT22;2313;48.552;9.370;2023-09-19T01:48:30;16.90;99.90
4602;DHT22;2313;48.552;9.370;2023-09-19T01:51:02;16.90;99.90
4602;DHT22;2313;48.552;9.370;2023-09-19T01:53:35;16.90;99.90
4602;DHT22;2313;48.552;9.370;2023-09-19T01:56:02;16.90;99.90
4602;DHT22;2313;48.552;9.370;2023-09-19T01:58:35;16.90;99.90
4602;DHT22;2313;48.552;9.370;2023-09-19T02:01:04;16.90;99.90
4602;DHT22;2313;48.552;9.370;2023-09-19T02:03:35;16.70;99.90
4602;DHT22;2313;48.552;9.370;2023-09-19T02:06:01;16.80;99.90
4602;DHT22;2313;48.552;9.370;2023-09-19T02:08:30;16.70;99.90
4602;DHT22;2313;48.552;9.370;2023-09-19T02:10:58;16.80;99.90
4602;DHT22;2313;48.552;9.370;2023-09-19T02:13:25;16.80;99.90
4602;DHT22;2313;48.552;9.370;2023-09-19T02:15:53;16.80;99.90
4602;DHT22;2313;48.552;9.370;2023-09-19T02:18:19;16.80;99.90
4602;DHT22;2313;48.552;9.370;2023-09-19T02:20:45;16.80;99.90
4602;DHT22;2313;48.552;9.370;2023-09-19T02:23:12;17.00;99.90
4602;DHT22;2313;48.552;9.370;2023-09-19T02:25:38;16.90;99.90
4602;DHT22;2313;48.552;9.370;2023-09-19T02:28:05;16.90;99.90
4602;DHT22;2313;48.552;9.370;2023-09-19T02:30:32;17.00;99.90
4602;DHT22;2313;48.552;9.370;2023-09-19T02:32:58;17.00;99.90
4602;DHT22;2313;48.552;9.370;2023-09-19T02:35:26;16.90;99.90
4602;DHT22;2313;48.552;9.370;2023-09-19T02:37:53;16.90;99.90
4602;DHT22;2313;48.552;9.370;2023-09-19T02:40:19;16.90;99.90
4602;DHT22;2313;48.552;9.370;2023-09-19T02:42:48;16.90;99.90
4602;DHT22;2313;48.552;9.370;2023-09-19T02:45:18;16.90;99.90
4602;DHT22;2313;48.552;9.370;2023-09-19T02:47:44;17.00;99.90
4602;DHT22;2313;48.552;9.370;2023-09-19T02:50:11;16.90;99.90
4602;DHT22;2313;48.552;9.370;2023-09-19T02:52:37;16.80;99.90
4602;DHT22;2313;48.552;9.370;2023-09-19T02:55:03;16.80;99.90
4602;DHT22;2313;48.552;9.370;2023-09-19T02:57:31;16.80;99.90
4602;DHT22;2313;48.552;9.370;2023-09-19T02:59:59;16.80;99.90
4602;DHT22;2313;48.552;9.370;2023-09-19T03:02:26;16.80;99.90
4602;DHT22;2313;48.552;9.370;2023-09-19T03:04:53;16.80;99.90
4602;DHT22;2313;48.552;9.370;2023-09-19T03:07:19;16.80;99.90
4602;DHT22;2313;48.552;9.370;2023-09-19T03:09:45;16.80;99.90
4602;DHT22;2313;48.552;9.370;2023-09-19T03:12:11;16.80;99.90
4602;DHT22;2313;48.552;9.370;2023-09-19T03:14:36;16.80;99.90
4602;DHT22;2313;48.552;9.370;2023-09-19T03:17:02;16.80;99.90
4602;DHT22;2313;48.552;9.370;2023-09-19T03:19:31;16.80;99.90
4602;DHT22;2313;48.552;9.370;2023-09-19T03:21:59;16.90;99.90
4602;DHT22;2313;48.552;9.370;2023-09-19T03:24:25;16.90;99.90
4602;DHT22;2313;48.552;9.370;2023-09-19T03:26:51;16.90;99.90
4602;DHT22;2313;48.552;9.370;2023-09-19T03:29:17;17.00;99.90
4602;DHT22;2313;48.552;9.370;2023-09-19T03:31:43;17.00;99.90
4602;DHT22;2313;48.552;9.370;2023-09-19T03:34:09;17.00;99.90
4602;DHT22;2313;48.552;9.370;2023-09-19T03:36:35;17.10;99.90
4602;DHT22;2313;48.552;9.370;2023-09-19T03:39:02;17.10;99.90
4602;DHT22;2313;48.552;9.370;2023-09-19T03:41:31;17.10;99.90
4602;DHT22;2313;48.552;9.370;2023-09-19T03:43:56;17.10;99.90
4602;DHT22;2313;48.552;9.370;2023-09-19T03:46:22;17.20;99.90
4602;DHT22;2313;48.552;9.370;2023-09-19T03:48:48;17.20;99.90
4602;DHT22;2313;48.552;9.370;2023-09-19T03:51:13;17.10;99.90
4602;DHT22;2313;48.552;9.370;2023-09-19T03:53:39;17.20;99.90
4602;DHT22;2313;48.552;9.370;2023-09-19T03:56:04;17.20;99.90
4602;DHT22;2313;48.552;9.370;2023-09-19T03:58:30;17.10;99.90
4602;DHT22;2313;48.552;9.370;2023-09-19T04:00:57;17.20;99.90
4602;DHT22;2313;48.552;9.370;2023-09-19T04:03:23;17.20;99.90
4602;DHT22;2313;48.552;9.370;2023-09-19T04:05:50;17.10;99.90
4602;DHT22;2313;48.552;9.370;2023-09-19T04:08:16;17.10;99.90
4602;DHT22;2313;48.552;9.370;2023-09-19T04:10:42;17.00;99.90
4602;DHT22;2313;48.552;9.370;2023-09-19T04:13:09;17.00;99.90
4602;DHT22;2313;48.552;9.370;2023-09-19T04:15:34;16.90;99.90
4602;DHT22;2313;48.552;9.370;2023-09-19T04:18:00;16.80;99.90
4602;DHT22;2313;48.552;9.370;2023-09-19T04:20:25;16.80;99.90
4602;DHT22;2313;48.552;9.370;2023-09-19T04:22:51;16.70;99.90
4602;DHT22;2313;48.552;9.370;2023-09-19T04:25:17;16.60;99.90
4602;DHT22;2313;48.552;9.370;2023-09-19T04:27:44;16.60;99.90
4602;DHT22;2313;48.552;9.370;2023-09-19T04:30:09;16.40;99.90
4602;DHT22;2313;48.552;9.370;2023-09-19T04:32:39;16.30;99.90
4602;DHT22;2313;48.552;9.370;2023-09-19T04:35:07;16.30;99.90
4602;DHT22;2313;48.552;9.370;2023-09-19T04:37:38;16.30;99.90
4602;DHT22;2313;48.552;9.370;2023-09-19T04:40:06;16.20;99.90
4602;DHT22;2313;48.552;9.370;2023-09-19T04:42:32;16.20;99.90
4602;DHT22;2313;48.552;9.370;2023-09-19T04:44:57;16.10;99.90
4602;DHT22;2313;48.552;9.370;2023-09-19T04:47:25;16.10;99.90
4602;DHT22;2313;48.552;9.370;2023-09-19T04:49:51;16.10;99.90
4602;DHT22;2313;48.552;9.370;2023-09-19T04:52:17;16.10;99.90
4602;DHT22;2313;48.552;9.370;2023-09-19T04:54:42;16.00;99.90
4602;DHT22;2313;48.552;9.370;2023-09-19T04:57:08;16.10;99.90
4602;DHT22;2313;48.552;9.370;2023-09-19T04:59:34;16.00;99.90
4602;DHT22;2313;48.552;9.370;2023-09-19T05:01:59;16.00;99.90
4602;DHT22;2313;48.552;9.370;2023-09-19T05:04:25;16.00;99.90
4602;DHT22;2313;48.552;9.370;2023-09-19T05:06:50;15.80;99.90
4602;DHT22;2313;48.552;9.370;2023-09-19T05:09:16;15.80;99.90
4602;DHT22;2313;48.552;9.370;2023-09-19T05:11:45;15.80;99.90
4602;DHT22;2313;48.552;9.370;2023-09-19T05:14:11;15.90;99.90
4602;DHT22;2313;48.552;9.370;2023-09-19T05:16:37;15.90;99.90
4602;DHT22;2313;48.552;9.370;2023-09-19T05:19:03;15.90;99.90
4602;DHT22;2313;48.552;9.370;2023-09-19T05:21:29;16.00;99.90
4602;DHT22;2313;48.552;9.370;2023-09-19T05:23:56;16.10;99.90
4602;DHT22;2313;48.552;9.370;2023-09-19T05:26:22;16.10;99.90
4602;DHT22;2313;48.552;9.370;2023-09-19T05:28:47;16.10;99.90
4602;DHT22;2313;48.552;9.370;2023-09-19T05:31:13;16.00;99.90
4602;DHT22;2313;48.552;9.370;2023-09-19T05:33:39;16.20;99.90
4602;DHT22;2313;48.552;9.370;2023-09-19T05:36:05;16.20;99.90
4602;DHT22;2313;48.552;9.370;2023-09-19T05:38:31;16.30;99.90
4602;DHT22;2313;48.552;9.370;2023-09-19T05:40:58;16.30;99.90
4602;DHT22;2313;48.552;9.370;2023-09-19T05:43:23;16.40;99.90
4602;DHT22;2313;48.552;9.370;2023-09-19T05:45:49;16.40;99.90
4602;DHT22;2313;48.552;9.370;2023-09-19T05:48:17;16.50;99.90
4602;DHT22;2313;48.552;9.370;2023-09-19T05:50:43;16.60;99.90
4602;DHT22;2313;48.552;9.370;2023-09-19T05:53:12;16.60;99.90
4602;DHT22;2313;48.552;9.370;2023-09-19T05:55:40;16.70;99.90
4602;DHT22;2313;48.552;9.370;2023-09-19T05:58:05;16.80;99.90
4602;DHT22;2313;48.552;9.370;2023-09-19T06:00:31;16.80;99.90
4602;DHT22;2313;48.552;9.370;2023-09-19T06:02:58;16.90;99.90
4602;DHT22;2313;48.552;9.370;2023-09-19T06:05:25;17.00;99.90
4602;DHT22;2313;48.552;9.370;2023-09-19T06:07:55;17.00;99.90
4602;DHT22;2313;48.552;9.370;2023-09-19T06:10:23;17.10;99.90
4602;DHT22;2313;48.552;9.370;2023-09-19T06:12:51;17.10;99.90
4602;DHT22;2313;48.552;9.370;2023-09-19T06:15:17;17.10;99.90
4602;DHT22;2313;48.552;9.370;2023-09-19T06:17:51;17.10;99.90
4602;DHT22;2313;48.552;9.370;2023-09-19T06:20:20;17.10;99.90
4602;DHT22;2313;48.552;9.370;2023-09-19T06:22:48;17.10;99.90
4602;DHT22;2313;48.552;9.370;2023-09-19T06:25:15;17.10;99.90
4602;DHT22;2313;48.552;9.370;2023-09-19T06:27:45;17.10;99.90
4602;DHT22;2313;48.552;9.370;2023-09-19T06:30:10;17.20;99.90
4602;DHT22;2313;48.552;9.370;2023-09-19T06:32:40;17.30;99.90
4602;DHT22;2313;48.552;9.370;2023-09-19T06:35:10;17.20;99.90
4602;DHT22;2313;48.552;9.370;2023-09-19T06:37:40;17.10;99.90
4602;DHT22;2313;48.552;9.370;2023-09-19T06:40:13;17.10;99.90
4602;DHT22;2313;48.552;9.370;2023-09-19T06:42:49;17.10;99.90
4602;DHT22;2313;48.552;9.370;2023-09-19T06:45:15;17.00;99.90
4602;DHT22;2313;48.552;9.370;2023-09-19T06:47:50;17.00;99.90
4602;DHT22;2313;48.552;9.370;2023-09-19T06:50:17;17.00;99.90
4602;DHT22;2313;48.552;9.370;2023-09-19T06:52:45;17.10;99.90
4602;DHT22;2313;48.552;9.370;2023-09-19T06:55:12;17.10;99.90
4602;DHT22;2313;48.552;9.370;2023-09-19T06:57:39;17.10;99.90
4602;DHT22;2313;48.552;9.370;2023-09-19T07:00:06;17.10;99.90
4602;DHT22;2313;48.552;9.370;2023-09-19T07:02:41;17.20;99.90
4602;DHT22;2313;48.552;9.370;2023-09-19T07:05:07;17.20;99.90
4602;DHT22;2313;48.552;9.370;2023-09-19T07:07:32;17.20;99.90
4602;DHT22;2313;48.552;9.370;2023-09-19T07:10:01;17.30;99.90
4602;DHT22;2313;48.552;9.370;2023-09-19T07:12:26;17.30;99.90
4602;DHT22;2313;48.552;9.370;2023-09-19T07:14:52;17.30;99.90
4602;DHT22;2313;48.552;9.370;2023-09-19T07:17:17;17.30;99.90
4602;DHT22;2313;48.552;9.370;2023-09-19T07:19:44;17.40;99.90
4602;DHT22;2313;48.552;9.370;2023-09-19T07:22:10;17.40;99.90
4602;DHT22;2313;48.552;9.370;2023-09-19T07:24:36;17.50;99.90
4602;DHT22;2313;48.552;9.370;2023-09-19T07:27:03;17.50;99.90
4602;DHT22;2313;48.552;9.370;2023-09-19T07:29:30;17.50;99.90
4602;DHT22;2313;48.552;9.370;2023-09-19T07:31:56;17.50;99.90
4602;DHT22;2313;48.552;9.370;2023-09-19T07:34:21;17.50;99.90
4602;DHT22;2313;48.552;9.370;2023-09-19T07:36:48;17.50;99.90
4602;DHT22;2313;48.552;9.370;2023-09-19T07:39:14;17.60;99.90
4602;DHT22;2313;48.552;9.370;2023-09-19T07:41:40;17.70;99.90
4602;DHT22;2313;48.552;9.370;2023-09-19T07:44:05;17.80;99.90
4602;DHT22;2313;48.552;9.370;2023-09-19T07:46:31;17.70;99.90
4602;DHT22;2313;48.552;9.370;2023-09-19T07:48:57;17.80;99.90
4602;DHT22;2313;48.552;9.370;2023-09-19T07:51:23;17.80;99.90
4602;DHT22;2313;48.552;9.370;2023-09-19T07:53:48;17.80;99.90
4602;DHT22;2313;48.552;9.370;2023-09-19T07:56:14;17.80;99.90
4602;DHT22;2313;48.552;9.370;2023-09-19T07:58:41;17.90;99.90
4602;DHT22;2313;48.552;9.370;2023-09-19T08:01:09;18.00;99.90
4602;DHT22;2313;48.552;9.370;2023-09-19T08:03:38;18.10;99.90
4602;DHT22;2313;48.552;9.370;2023-09-19T08:06:06;18.20;99.90
4602;DHT22;2313;48.552;9.370;2023-09-19T08:08:33;18.30;99.90
4602;DHT22;2313;48.552;9.370;2023-09-19T08:11:03;18.30;99.90
4602;DHT22;2313;48.552;9.370;2023-09-19T08:13:37;18.30;99.90
4602;DHT22;2313;48.552;9.370;2023-09-19T08:16:04;18.40;99.90
4602;DHT22;2313;48.552;9.370;2023-09-19T08:18:30;18.40;99.90
4602;DHT22;2313;48.552;9.370;2023-09-19T08:20:56;18.50;99.90
4602;DHT22;2313;48.552;9.370;2023-09-19T08:23:24;18.50;99.90
4602;DHT22;2313;48.552;9.370;2023-09-19T08:25:50;18.60;99.90
4602;DHT22;2313;48.552;9.370;2023-09-19T08:28:15;18.60;99.90
4602;DHT22;2313;48.552;9.370;2023-09-19T08:30:45;18.60;99.90
4602;DHT22;2313;48.552;9.370;2023-09-19T08:33:11;18.80;99.90
4602;DHT22;2313;48.552;9.370;2023-09-19T08:35:37;18.70;99.90
4602;DHT22;2313;48.552;9.370;2023-09-19T08:38:05;18.80;99.90
4602;DHT22;2313;48.552;9.370;2023-09-19T08:40:32;18.90;99.90
4602;DHT22;2313;48.552;9.370;2023-09-19T08:42:59;18.80;99.90
4602;DHT22;2313;48.552;9.370;2023-09-19T08:45:26;18.90;99.90
4602;DHT22;2313;48.552;9.370;2023-09-19T08:50:42;19.10;99.90
4602;DHT22;2313;48.552;9.370;2023-09-19T08:53:19;19.30;99.90
4602;DHT22;2313;48.552;9.370;2023-09-19T08:55:46;19.30;99.90
4602;DHT22;2313;48.552;9.370;2023-09-19T08:58:16;19.20;99.90
4602;DHT22;2313;48.552;9.370;2023-09-19T09:00:48;19.00;99.90
4602;DHT22;2313;48.552;9.370;2023-09-19T09:03:16;19.10;99.90
4602;DHT22;2313;48.552;9.370;2023-09-19T09:05:45;19.20;99.90
4602;DHT22;2313;48.552;9.370;2023-09-19T09:08:12;19.10;99.90
4602;DHT22;2313;48.552;9.370;2023-09-19T09:10:38;19.20;99.90
4602;DHT22;2313;48.552;9.370;2023-09-19T09:13:06;19.20;99.90
4602;DHT22;2313;48.552;9.370;2023-09-19T09:15:35;19.30;99.90
4602;DHT22;2313;48.552;9.370;2023-09-19T09:18:02;19.40;99.90
4602;DHT22;2313;48.552;9.370;2023-09-19T09:20:30;19.50;99.90
4602;DHT22;2313;48.552;9.370;2023-09-19T09:22:56;19.70;99.90
4602;DHT22;2313;48.552;9.370;2023-09-19T09:26:07;20.00;99.90
4602;DHT22;2313;48.552;9.370;2023-09-19T09:28:35;20.30;99.90
4602;DHT22;2313;48.552;9.370;2023-09-19T09:31:04;20.00;99.90
4602;DHT22;2313;48.552;9.370;2023-09-19T09:33:35;19.80;99.90
4602;DHT22;2313;48.552;9.370;2023-09-19T09:36:02;19.70;99.90
4602;DHT22;2313;48.552;9.370;2023-09-19T09:38:46;19.40;99.90
4602;DHT22;2313;48.552;9.370;2023-09-19T09:41:15;19.20;99.90
4602;DHT22;2313;48.552;9.370;2023-09-19T09:43:52;19.40;99.90
4602;DHT22;2313;48.552;9.370;2023-09-19T09:46:20;19.50;99.90
4602;DHT22;2313;48.552;9.370;2023-09-19T09:49:04;19.70;99.90
4602;DHT22;2313;48.552;9.370;2023-09-19T09:51:40;20.50;99.90
4602;DHT22;2313;48.552;9.370;2023-09-19T09:54:18;21.20;99.90
4602;DHT22;2313;48.552;9.370;2023-09-19T09:56:56;21.70;99.90
4602;DHT22;2313;48.552;9.370;2023-09-19T09:59:45;22.00;99.90
4602;DHT22;2313;48.552;9.370;2023-09-19T10:02:29;22.50;99.90
4602;DHT22;2313;48.552;9.370;2023-09-19T10:04:58;22.90;99.90
4602;DHT22;2313;48.552;9.370;2023-09-19T10:07:40;23.10;99.90
4602;DHT22;2313;48.552;9.370;2023-09-19T10:10:15;23.20;99.90
4602;DHT22;2313;48.552;9.370;2023-09-19T10:12:55;23.90;99.90
4602;DHT22;2313;48.552;9.370;2023-09-19T10:15:32;24.00;99.90
4602;DHT22;2313;48.552;9.370;2023-09-19T10:18:00;24.40;99.90
4602;DHT22;2313;48.552;9.370;2023-09-19T10:20:28;24.30;99.90
4602;DHT22;2313;48.552;9.370;2023-09-19T10:23:07;24.10;99.90
4602;DHT22;2313;48.552;9.370;2023-09-19T10:25:41;23.50;99.90
4602;DHT22;2313;48.552;9.370;2023-09-19T10:28:09;22.80;99.90
4602;DHT22;2313;48.552;9.370;2023-09-19T10:30:47;22.90;99.90
4602;DHT22;2313;48.552;9.370;2023-09-19T10:33:17;22.50;99.90
4602;DHT22;2313;48.552;9.370;2023-09-19T10:35:47;22.10;99.90
4602;DHT22;2313;48.552;9.370;2023-09-19T10:38:33;21.80;99.90
4602;DHT22;2313;48.552;9.370;2023-09-19T10:41:01;21.90;99.90
4602;DHT22;2313;48.552;9.370;2023-09-19T10:43:32;22.30;99.90
4602;DHT22;2313;48.552;9.370;2023-09-19T10:46:03;23.40;99.90
4602;DHT22;2313;48.552;9.370;2023-09-19T10:48:31;24.20;99.90
4602;DHT22;2313;48.552;9.370;2023-09-19T10:51:08;24.80;99.90
4602;DHT22;2313;48.552;9.370;2023-09-19T10:54:08;25.50;98.50
4602;DHT22;2313;48.552;9.370;2023-09-19T10:56:43;25.60;99.60
4602;DHT22;2313;48.552;9.370;2023-09-19T10:59:12;25.70;99.90
4602;DHT22;2313;48.552;9.370;2023-09-19T11:04:33;25.60;97.10
4602;DHT22;2313;48.552;9.370;2023-09-19T11:07:07;25.90;98.40
4602;DHT22;2313;48.552;9.370;2023-09-19T11:26:47;24.90;97.20
4602;DHT22;2313;48.552;9.370;2023-09-19T11:29:26;24.90;96.30
4602;DHT22;2313;48.552;9.370;2023-09-19T11:31:52;24.70;96.90
4602;DHT22;2313;48.552;9.370;2023-09-19T11:34:47;25.10;97.00
4602;DHT22;2313;48.552;9.370;2023-09-19T11:39:40;24.70;94.90
4602;DHT22;2313;48.552;9.370;2023-09-19T11:42:41;24.50;96.30
4602;DHT22;2313;48.552;9.370;2023-09-19T11:45:07;24.20;95.00
4602;DHT22;2313;48.552;9.370;2023-09-19T11:47:33;23.60;96.50
4602;DHT22;2313;48.552;9.370;2023-09-19T11:50:01;23.60;96.90
4602;DHT22;2313;48.552;9.370;2023-09-19T11:52:28;23.80;98.70
4602;DHT22;2313;48.552;9.370;2023-09-19T11:55:01;23.60;99.20
4602;DHT22;2313;48.552;9.370;2023-09-19T11:57:28;23.30;96.80
4602;DHT22;2313;48.552;9.370;2023-09-19T11:59:55;23.50;98.00
4602;DHT22;2313;48.552;9.370;2023-09-19T12:02:35;23.70;96.90
4602;DHT22;2313;48.552;9.370;2023-09-19T12:05:05;24.10;97.70
4602;DHT22;2313;48.552;9.370;2023-09-19T12:07:42;24.40;96.60
4602;DHT22;2313;48.552;9.370;2023-09-19T12:10:11;24.60;97.00
4602;DHT22;2313;48.552;9.370;2023-09-19T12:12:37;24.70;96.40
4602;DHT22;2313;48.552;9.370;2023-09-19T12:15:03;24.10;96.10
4602;DHT22;2313;48.552;9.370;2023-09-19T12:17:39;23.80;97.90
4602;DHT22;2313;48.552;9.370;2023-09-19T12:20:08;24.10;97.90
4602;DHT22;2313;48.552;9.370;2023-09-19T12:22:41;24.00;98.80
4602;DHT22;2313;48.552;9.370;2023-09-19T12:25:09;23.60;97.90
4602;DHT22;2313;48.552;9.370;2023-09-19T12:27:49;24.00;98.80
4602;DHT22;2313;48.552;9.370;2023-09-19T12:30:18;24.40;96.30
4602;DHT22;2313;48.552;9.370;2023-09-19T12:32:46;24.60;96.90
4602;DHT22;2313;48.552;9.370;2023-09-19T12:35:27;24.20;97.00
4602;DHT22;2313;48.552;9.370;2023-09-19T12:37:54;24.00;98.40
4602;DHT22;2313;48.552;9.370;2023-09-19T12:40:21;24.10;98.30
4602;DHT22;2313;48.552;9.370;2023-09-19T12:42:57;24.10;97.70
4602;DHT22;2313;48.552;9.370;2023-09-19T12:45:29;24.00;97.70
4602;DHT22;2313;48.552;9.370;2023-09-19T12:48:18;23.80;98.00
4602;DHT22;2313;48.552;9.370;2023-09-19T12:51:03;24.10;96.90
4602;DHT22;2313;48.552;9.370;2023-09-19T12:53:38;24.20;95.70
4602;DHT22;2313;48.552;9.370;2023-09-19T12:56:13;23.90;95.50
4602;DHT22;2313;48.552;9.370;2023-09-19T12:58:52;24.10;98.40
4602;DHT22;2313;48.552;9.370;2023-09-19T13:01:21;24.60;97.20
4602;DHT22;2313;48.552;9.370;2023-09-19T13:04:16;24.90;97.40
4602;DHT22;2313;48.552;9.370;2023-09-19T13:06:51;24.60;94.50
4602;DHT22;2313;48.552;9.370;2023-09-19T13:09:19;24.40;95.40
4602;DHT22;2313;48.552;9.370;2023-09-19T13:11:45;24.50;95.50
4602;DHT22;2313;48.552;9.370;2023-09-19T13:14:27;24.50;95.70
4602;DHT22;2313;48.552;9.370;2023-09-19T13:17:03;24.50;94.40
4602;DHT22;2313;48.552;9.370;2023-09-19T13:19:49;24.60;93.60
4602;DHT22;2313;48.552;9.370;2023-09-19T13:25:07;25.10;94.70
4602;DHT22;2313;48.552;9.370;2023-09-19T13:27:34;25.00;91.90
4602;DHT22;2313;48.552;9.370;2023-09-19T13:29:59;24.90;92.00
4602;DHT22;2313;48.552;9.370;2023-09-19T13:32:26;24.70;93.40
4602;DHT22;2313;48.552;9.370;2023-09-19T13:34:51;24.30;93.30
4602;DHT22;2313;48.552;9.370;2023-09-19T13:37:17;24.20;93.20
4602;DHT22;2313;48.552;9.370;2023-09-19T13:39:44;24.00;91.40
4602;DHT22;2313;48.552;9.370;2023-09-19T13:42:13;24.10;91.60
4602;DHT22;2313;48.552;9.370;2023-09-19T13:44:39;24.30;91.70
4602;DHT22;2313;48.552;9.370;2023-09-19T13:47:06;24.30;91.50
4602;DHT22;2313;48.552;9.370;2023-09-19T13:49:35;24.30;91.80
4602;DHT22;2313;48.552;9.370;2023-09-19T13:52:01;24.30;91.30
4602;DHT22;2313;48.552;9.370;2023-09-19T13:54:30;24.40;91.40
4602;DHT22;2313;48.552;9.370;2023-09-19T13:56:56;24.30;91.30
4602;DHT22;2313;48.552;9.370;2023-09-19T13:59:22;24.20;92.10
4602;DHT22;2313;48.552;9.370;2023-09-19T14:01:49;24.20;92.60
4602;DHT22;2313;48.552;9.370;2023-09-19T14:04:16;24.10;91.40
4602;DHT22;2313;48.552;9.370;2023-09-19T14:06:42;24.10;93.60
4602;DHT22;2313;48.552;9.370;2023-09-19T14:09:08;23.80;93.40
4602;DHT22;2313;48.552;9.370;2023-09-19T14:11:35;23.30;94.20
4602;DHT22;2313;48.552;9.370;2023-09-19T14:14:01;23.20;94.60
4602;DHT22;2313;48.552;9.370;2023-09-19T14:16:27;23.10;94.80
4602;DHT22;2313;48.552;9.370;2023-09-19T14:18:55;22.90;95.40
4602;DHT22;2313;48.552;9.370;2023-09-19T14:21:21;23.00;95.70
4602;DHT22;2313;48.552;9.370;2023-09-19T14:23:46;23.20;96.20
4602;DHT22;2313;48.552;9.370;2023-09-19T14:26:12;23.30;96.30
4602;DHT22;2313;48.552;9.370;2023-09-19T14:28:37;23.30;96.60
4602;DHT22;2313;48.552;9.370;2023-09-19T14:31:08;23.30;96.60
4602;DHT22;2313;48.552;9.370;2023-09-19T14:33:34;23.20;96.70
4602;DHT22;2313;48.552;9.370;2023-09-19T14:36:06;23.30;96.60
4602;DHT22;2313;48.552;9.370;2023-09-19T14:38:33;23.10;96.80
4602;DHT22;2313;48.552;9.370;2023-09-19T14:41:00;23.10;96.60
4602;DHT22;2313;48.552;9.370;2023-09-19T14:43:26;23.10;97.00
4602;DHT22;2313;48.552;9.370;2023-09-19T14:45:52;23.10;97.90
4602;DHT22;2313;48.552;9.370;2023-09-19T14:48:18;23.10;97.40
4602;DHT22;2313;48.552;9.370;2023-09-19T14:50:43;23.00;96.60
4602;DHT22;2313;48.552;9.370;2023-09-19T14:53:09;23.00;97.00
4602;DHT22;2313;48.552;9.370;2023-09-19T14:55:39;22.90;96.30
4602;DHT22;2313;48.552;9.370;2023-09-19T14:58:07;22.80;96.20
4602;DHT22;2313;48.552;9.370;2023-09-19T15:00:33;22.70;96.20
4602;DHT22;2313;48.552;9.370;2023-09-19T15:03:00;22.60;96.50
4602;DHT22;2313;48.552;9.370;2023-09-19T15:05:27;22.60;95.60
4602;DHT22;2313;48.552;9.370;2023-09-19T15:07:55;22.50;94.10
4602;DHT22;2313;48.552;9.370;2023-09-19T15:10:22;22.50;94.80
4602;DHT22;2313;48.552;9.370;2023-09-19T15:12:48;22.40;94.70
4602;DHT22;2313;48.552;9.370;2023-09-19T15:15:14;22.30;96.00
4602;DHT22;2313;48.552;9.370;2023-09-19T15:17:40;22.40;95.60
4602;DHT22;2313;48.552;9.370;2023-09-19T15:20:06;22.40;96.30
4602;DHT22;2313;48.552;9.370;2023-09-19T15:22:35;22.30;96.10
4602;DHT22;2313;48.552;9.370;2023-09-19T15:25:01;22.30;96.20
4602;DHT22;2313;48.552;9.370;2023-09-19T15:27:28;22.30;96.10
4602;DHT22;2313;48.552;9.370;2023-09-19T15:29:56;22.30;96.00
4602;DHT22;2313;48.552;9.370;2023-09-19T15:32:24;22.30;95.90
4602;DHT22;2313;48.552;9.370;2023-09-19T15:34:49;22.30;96.70
4602;DHT22;2313;48.552;9.370;2023-09-19T15:37:15;22.30;97.00
4602;DHT22;2313;48.552;9.370;2023-09-19T15:39:41;22.30;99.00
4602;DHT22;2313;48.552;9.370;2023-09-19T15:42:07;22.20;97.70
4602;DHT22;2313;48.552;9.370;2023-09-19T15:44:33;22.20;96.60
4602;DHT22;2313;48.552;9.370;2023-09-19T15:46:59;22.20;98.40
4602;DHT22;2313;48.552;9.370;2023-09-19T15:49:24;22.20;96.50
4602;DHT22;2313;48.552;9.370;2023-09-19T15:51:50;22.20;95.80
4602;DHT22;2313;48.552;9.370;2023-09-19T15:54:16;22.10;95.80
4602;DHT22;2313;48.552;9.370;2023-09-19T15:56:43;22.00;96.20
4602;DHT22;2313;48.552;9.370;2023-09-19T15:59:09;22.00;96.00
4602;DHT22;2313;48.552;9.370;2023-09-19T16:01:37;22.00;96.30
4602;DHT22;2313;48.552;9.370;2023-09-19T16:04:03;21.90;96.30
4602;DHT22;2313;48.552;9.370;2023-09-19T16:06:30;21.90;96.60
4602;DHT22;2313;48.552;9.370;2023-09-19T16:08:58;21.80;96.30
4602;DHT22;2313;48.552;9.370;2023-09-19T16:11:25;21.80;93.20
4602;DHT22;2313;48.552;9.370;2023-09-19T16:13:52;21.80;93.10
4602;DHT22;2313;48.552;9.370;2023-09-19T16:16:20;21.70;92.60
4602;DHT22;2313;48.552;9.370;2023-09-19T16:18:56;21.70;93.30
4602;DHT22;2313;48.552;9.370;2023-09-19T16:21:24;21.60;93.00
4602;DHT22;2313;48.552;9.370;2023-09-19T16:23:52;21.60;92.90
4602;DHT22;2313;48.552;9.370;2023-09-19T16:26:19;21.50;92.80
4602;DHT22;2313;48.552;9.370;2023-09-19T16:28:46;21.40;95.40
4602;DHT22;2313;48.552;9.370;2023-09-19T16:31:13;21.50;95.50
4602;DHT22;2313;48.552;9.370;2023-09-19T16:33:47;21.40;95.80
4602;DHT22;2313;48.552;9.370;2023-09-19T16:36:18;21.40;93.80
4602;DHT22;2313;48.552;9.370;2023-09-19T16:38:46;21.40;99.90
4602;DHT22;2313;48.552;9.370;2023-09-19T16:41:13;21.30;99.90
4602;DHT22;2313;48.552;9.370;2023-09-19T16:43:40;21.20;99.90
4602;DHT22;2313;48.552;9.370;2023-09-19T16:46:08;21.20;99.90
4602;DHT22;2313;48.552;9.370;2023-09-19T16:48:37;21.10;99.90
4602;DHT22;2313;48.552;9.370;2023-09-19T16:51:05;21.00;99.90
4602;DHT22;2313;48.552;9.370;2023-09-19T16:53:32;20.80;94.90
4602;DHT22;2313;48.552;9.370;2023-09-19T16:56:07;20.70;94.10